Time;durP1;ratioP1;P1;durP2;ratioP2;P2;SDS_P1;SDS_P2;PMS_P1;PMS_P2;Temp;Humidity;BMP_temperature;BMP_pressure;BME280_temperature;BME280_humidity;BME280_pressure;Samples;Min_cycle;Max_cycle;Signal;HPM_P1;HPM_P2
2023/04/23 00:00:38;;;;;;;4.20;3.90;;;;;;;11.81;100.00;98211.78;5034061;28;20182;-63
2023/04/23 00:03:11;;;;;;;4.30;4.00;;;;;;;11.81;100.00;98209.19;5034016;28;20170;-63
2023/04/23 00:05:37;;;;;;;4.60;4.20;;;;;;;11.54;100.00;98156.84;5034023;28;20166;-63
2023/04/23 00:08:03;;;;;;;4.68;3.90;;;;;;;11.86;100.00;98227.81;5033932;28;20174;-64
2023/04/23 00:10:28;;;;;;;4.63;4.28;;;;;;;11.92;100.00;98217.81;5033914;28;20236;-63
2023/04/23 00:12:54;;;;;;;4.50;4.10;;;;;;;11.39;100.00;98130.34;5033829;28;20197;-64
2023/04/23 00:15:21;;;;;;;4.53;4.13;;;;;;;11.66;100.00;98174.06;5033759;28;20582;-63
2023/04/23 00:17:47;;;;;;;4.20;3.90;;;;;;;11.61;100.00;98179.63;5033648;28;20680;-63
2023/04/23 00:20:13;;;;;;;4.25;3.95;;;;;;;11.60;100.00;98167.59;5033702;28;20641;-63
2023/04/23 00:22:39;;;;;;;5.22;4.22;;;;;;;11.18;100.00;98144.94;5033387;28;20648;-64
2023/04/23 00:25:05;;;;;;;4.80;3.97;;;;;;;11.67;100.00;98232.75;5033629;28;20175;-63
2023/04/23 00:27:30;;;;;;;5.63;4.35;;;;;;;11.37;100.00;98178.03;5033618;28;20581;-64
2023/04/23 00:29:56;;;;;;;4.82;4.38;;;;;;;11.43;100.00;98193.13;5033053;28;20266;-64
2023/04/23 00:32:21;;;;;;;4.43;4.03;;;;;;;11.44;100.00;98211.13;5032879;28;20181;-64
2023/04/23 00:34:50;;;;;;;4.68;4.38;;;;;;;11.31;100.00;98184.50;5033433;28;20175;-64
2023/04/23 00:37:16;;;;;;;4.15;3.88;;;;;;;11.26;100.00;98191.78;5033334;28;20178;-63
2023/04/23 00:39:42;;;;;;;5.57;4.20;;;;;;;11.07;100.00;98201.88;5033274;28;20209;-63
2023/04/23 00:42:11;;;;;;;4.40;4.00;;;;;;;11.29;100.00;98232.16;5030760;28;20568;-63
2023/04/23 00:44:42;;;;;;;5.72;4.78;;;;;;;10.58;100.00;98151.22;5031133;28;20609;-63
2023/04/23 00:47:09;;;;;;;5.65;4.45;;;;;;;10.84;100.00;98215.66;5030816;28;20198;-63
2023/04/23 00:49:35;;;;;;;6.07;4.63;;;;;;;11.05;100.00;98234.81;5030663;28;20194;-63
2023/04/23 00:52:02;;;;;;;5.07;4.68;;;;;;;11.15;100.00;98242.72;5030703;28;20195;-63
2023/04/23 00:54:27;;;;;;;4.80;4.43;;;;;;;10.53;100.00;98161.91;5030721;28;20700;-64
2023/04/23 00:56:56;;;;;;;4.90;4.55;;;;;;;10.60;100.00;98186.38;5030615;28;20190;-64
2023/04/23 00:59:25;;;;;;;5.07;4.57;;;;;;;10.93;100.00;98230.53;5030377;28;20731;-64
2023/04/23 01:01:51;;;;;;;5.85;5.30;;;;;;;10.98;100.00;98212.88;5030647;28;20553;-64
2023/04/23 01:04:19;;;;;;;4.60;4.22;;;;;;;10.73;100.00;98160.47;5010488;28;20269;-64
2023/04/23 01:06:46;;;;;;;5.55;4.85;;;;;;;11.02;100.00;98219.50;5010653;28;20187;-64
2023/04/23 01:09:12;;;;;;;5.45;4.97;;;;;;;11.17;100.00;98244.28;5010683;28;20198;-64
2023/04/23 01:11:41;;;;;;;6.03;4.32;;;;;;;10.89;100.00;98202.38;5010562;28;20195;-64
2023/04/23 01:14:07;;;;;;;4.95;4.50;;;;;;;10.86;100.00;98205.19;5028507;28;20681;-64
2023/04/23 01:16:34;;;;;;;7.55;4.38;;;;;;;10.95;100.00;98220.03;5030215;28;20190;-64
2023/04/23 01:19:01;;;;;;;4.80;4.30;;;;;;;11.12;100.00;98241.19;5030194;28;20215;-63
2023/04/23 01:21:28;;;;;;;5.53;4.97;;;;;;;11.01;100.00;98211.81;4996246;28;20212;-64
2023/04/23 01:23:54;;;;;;;6.63;5.55;;;;;;;11.03;100.00;98246.22;4990803;28;20635;-64
2023/04/23 01:26:20;;;;;;;8.30;6.47;;;;;;;10.87;100.00;98210.28;4990772;28;20274;-64
2023/04/23 01:28:46;;;;;;;6.00;5.05;;;;;;;11.11;100.00;98257.66;4990688;28;20179;-64
2023/04/23 01:31:13;;;;;;;5.32;4.85;;;;;;;10.56;100.00;98195.28;4990784;28;20389;-64
2023/04/23 01:33:39;;;;;;;7.03;5.50;;;;;;;10.45;100.00;98199.59;4971178;28;20738;-64
2023/04/23 01:36:06;;;;;;;5.90;5.05;;;;;;;10.02;100.00;98142.31;4987454;28;20210;-62
2023/04/23 01:38:33;;;;;;;5.20;4.70;;;;;;;10.67;100.00;98248.84;5010033;28;20203;-63
2023/04/23 01:40:58;;;;;;;4.85;4.47;;;;;;;10.38;100.00;98188.84;5010217;28;20677;-63
2023/04/23 01:43:24;;;;;;;5.63;4.85;;;;;;;9.93;100.00;98145.53;4990244;28;20219;-63
2023/04/23 01:45:50;;;;;;;5.80;4.72;;;;;;;10.49;100.00;98237.22;4990557;28;20188;-63
2023/04/23 01:48:15;;;;;;;6.97;5.47;;;;;;;9.87;100.00;98161.44;4997139;28;20196;-63
2023/04/23 01:50:41;;;;;;;5.95;5.35;;;;;;;9.82;100.00;98153.19;5029868;28;20182;-63
2023/04/23 01:53:07;;;;;;;5.60;5.13;;;;;;;10.22;100.00;98241.75;5029801;28;20675;-63
2023/04/23 01:55:36;;;;;;;6.20;5.43;;;;;;;10.09;100.00;98228.03;5029783;28;20265;-63
2023/04/23 01:58:02;;;;;;;7.05;5.88;;;;;;;9.60;100.00;98149.63;5029490;28;20305;-63
2023/04/23 02:00:27;;;;;;;7.05;5.53;;;;;;;9.57;100.00;98136.94;5029754;28;20278;-63
2023/04/23 02:02:53;;;;;;;7.53;5.40;;;;;;;9.70;100.00;98161.78;5029715;28;20193;-63
2023/04/23 02:05:19;;;;;;;6.53;5.93;;;;;;;9.80;100.00;98208.53;5029719;28;20304;-63
2023/04/23 02:07:47;;;;;;;6.15;5.50;;;;;;;9.99;100.00;98247.66;5029744;28;20186;-63
2023/04/23 02:10:13;;;;;;;6.05;5.45;;;;;;;9.86;100.00;98218.44;5029732;28;20221;-63
2023/04/23 02:12:39;;;;;;;6.13;5.50;;;;;;;9.69;100.00;98185.97;5029673;28;20206;-63
2023/04/23 02:15:06;;;;;;;7.75;5.43;;;;;;;9.53;100.00;98156.16;5031217;28;20614;-63
2023/04/23 02:17:32;;;;;;;6.30;5.70;;;;;;;9.47;100.00;98142.81;5032033;28;20633;-63
2023/04/23 02:19:57;;;;;;;8.40;6.03;;;;;;;9.94;100.00;98216.13;5031862;28;20205;-63
2023/04/23 02:22:25;;;;;;;9.88;6.00;;;;;;;9.80;100.00;98203.34;5031934;28;20184;-63
2023/04/23 02:24:51;;;;;;;6.53;5.93;;;;;;;10.05;100.00;98213.66;5031947;28;20645;-63
2023/04/23 02:27:16;;;;;;;6.57;5.63;;;;;;;10.20;100.00;98217.75;5031859;28;20598;-63
2023/04/23 02:29:42;;;;;;;7.03;6.25;;;;;;;9.88;100.00;98196.69;5031865;28;20242;-63
2023/04/23 02:32:07;;;;;;;6.35;5.75;;;;;;;9.92;100.00;98207.69;5031876;28;20170;-63
2023/04/23 02:34:33;;;;;;;7.03;6.35;;;;;;;9.58;100.00;98151.50;5031859;28;20178;-63
2023/04/23 02:36:58;;;;;;;6.75;6.13;;;;;;;10.02;100.00;98232.78;5031828;28;20253;-63
2023/04/23 02:39:23;;;;;;;7.00;5.63;;;;;;;9.82;100.00;98198.91;5031720;28;20204;-63
2023/04/23 02:41:49;;;;;;;5.95;5.45;;;;;;;9.57;100.00;98149.84;5031806;28;20549;-63
2023/04/23 02:44:15;;;;;;;6.43;5.82;;;;;;;10.10;100.00;98237.44;5031740;28;20175;-63
2023/04/23 02:46:40;;;;;;;5.85;5.30;;;;;;;9.84;100.00;98184.09;5031748;28;20171;-63
2023/04/23 02:49:05;;;;;;;6.78;6.07;;;;;;;10.17;100.00;98231.72;5031724;28;20179;-63
2023/04/23 02:51:31;;;;;;;6.55;5.90;;;;;;;10.09;100.00;98225.47;5031985;28;20189;-63
2023/04/23 02:53:57;;;;;;;5.80;5.20;;;;;;;9.74;100.00;98152.91;5032418;28;20185;-63
2023/04/23 02:56:22;;;;;;;6.55;5.28;;;;;;;9.82;100.00;98183.41;5035311;28;20202;-63
2023/04/23 02:58:48;;;;;;;7.00;5.85;;;;;;;10.00;100.00;98206.22;5034850;28;20210;-63
2023/04/23 03:01:13;;;;;;;6.35;5.85;;;;;;;9.99;100.00;98203.72;5034959;28;20170;-63
2023/04/23 03:03:39;;;;;;;6.38;5.88;;;;;;;10.23;100.00;98227.91;5035173;28;20182;-64
2023/04/23 03:06:05;;;;;;;6.55;5.90;;;;;;;9.76;100.00;98151.03;5035185;28;20170;-64
2023/04/23 03:08:31;;;;;;;5.75;5.25;;;;;;;10.02;100.00;98167.31;5035065;28;20190;-64
2023/04/23 03:10:57;;;;;;;6.53;5.97;;;;;;;10.43;100.00;98241.09;5032596;28;20190;-64
2023/04/23 03:13:22;;;;;;;6.22;5.63;;;;;;;10.00;100.00;98169.19;5032631;28;20195;-64
2023/04/23 03:15:49;;;;;;;7.38;5.03;;;;;;;10.01;100.00;98181.19;5032590;28;20229;-64
2023/04/23 03:18:14;;;;;;;6.88;5.40;;;;;;;10.51;100.00;98263.81;5032693;28;20712;-64
2023/04/23 03:20:42;;;;;;;6.43;5.78;;;;;;;10.48;100.00;98239.00;5032482;28;20222;-64
2023/04/23 03:23:08;;;;;;;5.68;5.18;;;;;;;10.27;100.00;98203.50;5032439;28;20245;-64
2023/04/23 03:25:33;;;;;;;6.45;5.88;;;;;;;10.68;100.00;98263.47;5032370;28;20182;-64
2023/04/23 03:27:59;;;;;;;5.90;5.40;;;;;;;10.31;100.00;98191.97;5032396;28;20252;-62
2023/04/23 03:30:26;;;;;;;9.52;6.03;;;;;;;10.62;100.00;98250.97;5032289;28;20272;-62
2023/04/23 03:32:53;;;;;;;6.32;5.72;;;;;;;10.63;100.00;98255.19;5032252;28;20203;-63
2023/04/23 03:35:19;;;;;;;6.20;5.68;;;;;;;10.58;100.00;98252.09;5032244;28;20183;-63
2023/04/23 03:37:44;;;;;;;9.75;6.20;;;;;;;10.57;100.00;98269.38;5032119;28;20684;-63
2023/04/23 03:40:10;;;;;;;6.40;5.80;;;;;;;10.53;100.00;98256.78;5032181;28;20174;-63
2023/04/23 03:42:35;;;;;;;6.22;5.72;;;;;;;10.15;100.00;98183.66;5033662;28;20198;-63
2023/04/23 03:45:01;;;;;;;5.95;5.43;;;;;;;10.37;100.00;98248.44;5034402;28;20175;-63
2023/04/23 03:47:26;;;;;;;5.85;5.22;;;;;;;10.47;100.00;98267.56;5034355;28;20198;-63
2023/04/23 03:49:54;;;;;;;7.43;5.47;;;;;;;10.21;100.00;98212.47;5034306;28;20185;-64
2023/04/23 03:52:19;;;;;;;6.10;5.50;;;;;;;10.26;100.00;98219.91;5034258;28;20179;-64
2023/04/23 03:54:45;;;;;;;6.88;6.10;;;;;;;10.54;100.00;98242.91;5034552;28;20178;-64
2023/04/23 03:57:13;;;;;;;12.30;8.02;;;;;;;10.67;100.00;98235.91;5034046;28;20179;-63
2023/04/23 03:59:38;;;;;;;8.80;7.90;;;;;;;11.11;100.00;98285.31;5034088;28;20191;-63
2023/04/23 04:02:04;;;;;;;9.32;8.27;;;;;;;11.27;100.00;98288.44;5033757;28;20179;-63
2023/04/23 04:04:30;;;;;;;9.73;8.20;;;;;;;10.85;100.00;98203.56;5033932;28;20178;-63
2023/04/23 04:06:56;;;;;;;11.05;8.48;;;;;;;11.13;100.00;98248.00;5032882;28;20186;-63
2023/04/23 04:09:22;;;;;;;8.38;7.32;;;;;;;11.36;100.00;98273.06;5033929;28;20223;-64
2023/04/23 04:11:47;;;;;;;9.55;7.03;;;;;;;11.36;100.00;98285.16;5033917;28;20633;-64
2023/04/23 04:14:13;;;;;;;7.78;6.70;;;;;;;10.92;100.00;98215.91;5033865;28;20168;-64
2023/04/23 04:16:39;;;;;;;7.90;7.20;;;;;;;11.05;100.00;98234.81;5033835;28;20528;-64
2023/04/23 04:19:04;;;;;;;7.53;6.82;;;;;;;11.34;100.00;98293.06;5033708;28;20198;-64
2023/04/23 04:21:31;;;;;;;8.07;7.38;;;;;;;11.05;100.00;98255.53;5051136;28;20201;-63
2023/04/23 04:23:56;;;;;;;8.65;7.82;;;;;;;11.16;100.00;98293.56;5051258;28;20208;-64
2023/04/23 04:26:24;;;;;;;9.25;7.43;;;;;;;11.07;100.00;98270.94;5051124;28;20719;-64
2023/04/23 04:28:50;;;;;;;8.57;7.70;;;;;;;11.01;100.00;98268.78;5051134;28;20185;-64
2023/04/23 04:31:16;;;;;;;8.75;7.93;;;;;;;11.35;100.00;98314.59;5051082;28;20196;-64
2023/04/23 04:33:42;;;;;;;9.05;8.18;;;;;;;11.14;100.00;98287.69;5051045;28;20170;-63
2023/04/23 04:36:08;;;;;;;8.32;7.40;;;;;;;11.23;100.00;98318.94;5051005;28;20186;-64
2023/04/23 04:38:36;;;;;;;10.52;7.80;;;;;;;10.53;100.00;98226.56;5050751;28;20205;-64
2023/04/23 04:41:02;;;;;;;10.20;7.60;;;;;;;10.49;100.00;98237.22;5050864;28;20186;-63
2023/04/23 04:43:28;;;;;;;10.02;8.40;;;;;;;10.81;100.00;98305.63;5050828;28;20174;-64
2023/04/23 04:45:53;;;;;;;9.82;8.45;;;;;;;10.79;100.00;98287.63;5050749;28;20188;-63
2023/04/23 04:48:19;;;;;;;8.50;7.60;;;;;;;10.67;100.00;98254.03;5050727;28;20185;-64
2023/04/23 04:50:45;;;;;;;9.65;8.32;;;;;;;10.60;100.00;98239.88;5050686;28;20597;-64
2023/04/23 04:53:11;;;;;;;9.43;8.52;;;;;;;11.08;100.00;98294.13;5036497;28;20271;-64
2023/04/23 04:55:36;;;;;;;10.43;8.10;;;;;;;11.24;100.00;98317.97;5033046;28;20653;-64
2023/04/23 04:58:02;;;;;;;12.77;8.52;;;;;;;11.31;100.00;98303.63;5032671;28;20198;-63
2023/04/23 05:00:28;;;;;;;12.82;9.80;;;;;;;11.66;100.00;98345.13;5032929;28;20529;-63
2023/04/23 05:02:56;;;;;;;16.35;14.68;;;;;;;11.25;100.00;98260.06;5032972;28;20184;-63
2023/04/23 05:05:23;;;;;;;14.18;12.60;;;;;;;11.85;100.00;98340.25;5032866;28;20178;-64
2023/04/23 05:07:49;;;;;;;12.35;10.65;;;;;;;11.74;100.00;98296.16;5032872;28;20217;-64
2023/04/23 05:10:15;;;;;;;11.40;9.75;;;;;;;11.92;100.00;98312.91;5032802;28;20178;-63
2023/04/23 05:12:41;;;;;;;11.45;10.40;;;;;;;11.75;100.00;98266.69;5032753;28;20664;-63
2023/04/23 05:15:08;;;;;;;12.77;10.13;;;;;;;12.32;100.00;98350.44;5032737;28;20274;-64
2023/04/23 05:17:34;;;;;;;10.55;8.48;;;;;;;12.37;100.00;98332.75;5032215;28;20225;-64
2023/04/23 05:20:00;;;;;;;9.90;8.90;;;;;;;12.40;100.00;98312.59;5032571;28;20198;-63
2023/04/23 05:22:26;;;;;;;9.88;8.90;;;;;;;12.85;100.00;98350.53;5032345;28;20558;-63
2023/04/23 05:24:51;;;;;;;10.93;8.93;;;;;;;12.48;100.00;98273.06;5032276;28;20182;-64
2023/04/23 05:27:17;;;;;;;12.40;8.75;;;;;;;13.01;100.00;98327.63;5032488;28;20174;-64
2023/04/23 05:29:42;;;;;;;9.63;8.57;;;;;;;13.30;100.00;98351.28;5032505;28;20182;-64
2023/04/23 05:32:08;;;;;;;11.35;9.63;;;;;;;13.43;100.00;98352.78;5032470;28;20170;-64
2023/04/23 05:34:36;;;;;;;12.73;9.23;;;;;;;13.47;100.00;98361.97;5049832;28;20189;-64
2023/04/23 05:37:01;;;;;;;13.52;12.13;;;;;;;13.11;100.00;98291.34;5049964;28;20344;-64
2023/04/23 05:39:27;;;;;;;12.60;9.70;;;;;;;13.62;100.00;98362.50;5049842;28;20698;-65
2023/04/23 05:41:52;;;;;;;12.60;7.70;;;;;;;13.72;100.00;98368.59;5049824;28;20706;-63
2023/04/23 05:44:18;;;;;;;11.60;7.68;;;;;;;13.77;100.00;98369.88;5049822;28;20198;-65
2023/04/23 05:46:43;;;;;;;9.13;7.50;;;;;;;13.60;100.00;98328.00;5049639;28;20221;-63
2023/04/23 05:49:08;;;;;;;12.95;7.82;;;;;;;13.87;100.00;98373.38;5049775;28;20269;-63
2023/04/23 05:51:34;;;;;;;10.80;7.60;;;;;;;13.85;100.00;98377.03;5049709;28;20822;-63
2023/04/23 05:53:59;;;;;;;10.73;7.38;;;;;;;13.70;100.00;98353.13;5049747;28;20185;-63
2023/04/23 05:56:25;;;;;;;10.57;6.95;;;;;;;13.68;100.00;98351.59;5049660;28;20305;-63
2023/04/23 05:58:50;;;;;;;7.07;6.47;;;;;;;13.95;100.00;98383.97;5049311;28;20317;-63
2023/04/23 06:01:16;;;;;;;10.70;6.63;;;;;;;14.01;100.00;98380.84;5049608;28;20228;-63
2023/04/23 06:03:44;;;;;;;8.90;6.22;;;;;;;14.04;100.00;98390.19;5029557;28;20229;-64
2023/04/23 06:06:11;;;;;;;9.23;7.07;;;;;;;13.61;100.00;98317.50;5029721;28;20193;-63
2023/04/23 06:08:37;;;;;;;9.23;7.18;;;;;;;14.00;100.00;98376.59;5029617;28;20276;-64
2023/04/23 06:11:03;;;;;;;12.57;7.95;;;;;;;13.83;100.00;98337.34;5029697;28;20220;-64
2023/04/23 06:13:29;;;;;;;11.88;7.05;;;;;;;14.16;100.00;98379.59;5029611;28;20198;-64
2023/04/23 06:15:55;;;;;;;11.20;6.93;;;;;;;14.31;100.00;98393.97;5029657;28;20210;-64
2023/04/23 06:18:21;;;;;;;13.10;9.20;;;;;;;14.36;100.00;98401.38;5029496;28;20248;-64
2023/04/23 06:20:47;;;;;;;10.20;7.13;;;;;;;14.37;99.99;98387.41;5029609;28;20217;-64
2023/04/23 06:23:13;;;;;;;10.27;7.03;;;;;;;14.35;99.16;98368.50;5029572;28;20194;-64
2023/04/23 06:25:39;;;;;;;10.98;6.75;;;;;;;14.43;98.45;98377.31;5029558;28;20244;-63
2023/04/23 06:28:04;;;;;;;8.57;6.15;;;;;;;14.57;98.95;98394.38;5029533;28;20277;-63
2023/04/23 06:30:30;;;;;;;11.65;7.07;;;;;;;14.55;96.41;98375.44;5032818;28;20225;-63
2023/04/23 06:32:55;;;;;;;7.20;4.95;;;;;;;14.44;96.22;98347.72;5033437;28;20175;-63
2023/04/23 06:35:21;;;;;;;9.30;5.78;;;;;;;14.30;95.23;98323.81;5034926;28;20191;-63
2023/04/23 06:37:46;;;;;;;9.73;5.75;;;;;;;14.57;94.55;98381.38;5035396;28;20206;-63
2023/04/23 06:40:11;;;;;;;10.45;6.38;;;;;;;14.55;95.72;98365.84;5035500;28;20206;-63
2023/04/23 06:42:37;;;;;;;7.82;7.00;;;;;;;14.67;95.62;98369.19;5035592;28;20183;-63
2023/04/23 06:45:03;;;;;;;9.98;6.22;;;;;;;14.57;95.08;98348.31;5035512;28;20210;-63
2023/04/23 06:47:30;;;;;;;9.27;6.53;;;;;;;14.56;93.76;98331.03;5035466;28;20178;-64
2023/04/23 06:49:56;;;;;;;7.25;6.05;;;;;;;14.57;93.25;98329.28;5035442;28;20175;-64
2023/04/23 06:52:21;;;;;;;11.25;6.40;;;;;;;14.95;92.22;98353.66;5035359;28;20232;-64
2023/04/23 06:54:46;;;;;;;9.15;6.40;;;;;;;14.87;91.60;98329.22;5035372;28;20171;-63
2023/04/23 06:57:12;;;;;;;10.15;6.32;;;;;;;14.90;91.92;98331.56;5035174;28;20170;-63
2023/04/23 06:59:37;;;;;;;7.88;6.35;;;;;;;15.12;90.16;98354.78;5035334;28;20194;-63
2023/04/23 07:02:03;;;;;;;16.23;6.63;;;;;;;15.00;90.03;98329.81;5035238;28;20214;-63
2023/04/23 07:04:28;;;;;;;12.20;6.60;;;;;;;15.43;90.24;98395.47;5034908;28;20556;-63
2023/04/23 07:06:54;;;;;;;7.00;6.35;;;;;;;15.46;89.57;98385.59;5035123;28;20170;-63
2023/04/23 07:09:19;;;;;;;8.77;7.03;;;;;;;15.67;88.50;98393.28;5035048;28;20182;-63
2023/04/23 07:11:45;;;;;;;11.50;7.15;;;;;;;15.28;87.53;98335.03;5035020;28;20182;-63
2023/04/23 07:14:10;;;;;;;15.73;7.50;;;;;;;15.63;88.66;98391.94;5052375;28;20193;-63
2023/04/23 07:16:35;;;;;;;12.90;8.07;;;;;;;15.29;87.72;98336.69;5052507;28;20269;-64
2023/04/23 07:19:01;;;;;;;8.05;7.25;;;;;;;15.79;87.39;98402.63;5052363;28;20706;-64
2023/04/23 07:21:27;;;;;;;8.32;7.13;;;;;;;15.84;87.33;98406.50;5052448;28;20174;-64
2023/04/23 07:23:56;;;;;;;10.07;7.40;;;;;;;15.81;87.41;98411.16;5052411;28;20587;-64
2023/04/23 07:26:21;;;;;;;15.10;8.45;;;;;;;15.40;87.29;98336.59;5052236;28;20196;-64
2023/04/23 07:28:47;;;;;;;9.25;8.13;;;;;;;15.66;86.72;98368.16;5052220;28;20280;-64
2023/04/23 07:31:13;;;;;;;15.40;7.75;;;;;;;15.97;85.19;98399.19;5052190;28;20181;-64
2023/04/23 07:33:39;;;;;;;12.35;7.25;;;;;;;15.86;84.84;98372.44;5052157;28;20193;-64
2023/04/23 07:36:04;;;;;;;10.65;6.45;;;;;;;15.83;85.01;98367.47;5052136;28;20194;-64
2023/04/23 07:38:29;;;;;;;13.93;7.35;;;;;;;15.90;84.22;98389.44;5052017;28;20690;-64
2023/04/23 07:40:55;;;;;;;13.43;7.57;;;;;;;16.09;84.29;98405.91;5051916;28;20194;-64
2023/04/23 07:43:20;;;;;;;14.80;7.65;;;;;;;15.84;84.71;98363.91;5051798;28;20216;-64
2023/04/23 07:45:46;;;;;;;9.68;6.70;;;;;;;16.17;84.75;98400.84;5037078;28;20193;-64
2023/04/23 07:48:11;;;;;;;13.20;6.88;;;;;;;16.09;83.93;98397.28;5031943;28;20192;-64
2023/04/23 07:50:37;;;;;;;11.75;7.20;;;;;;;15.88;85.16;98365.28;5031998;28;20182;-64
2023/04/23 07:53:02;;;;;;;13.40;6.75;;;;;;;16.12;84.05;98399.59;5011965;28;20191;-64
2023/04/23 07:55:28;;;;;;;6.78;5.90;;;;;;;15.90;82.76;98345.09;5012100;28;20202;-64
2023/04/23 07:57:53;;;;;;;7.78;5.85;;;;;;;16.25;80.32;98400.94;5011794;28;20209;-63
2023/04/23 08:00:18;;;;;;;12.10;6.63;;;;;;;16.26;81.40;98388.72;5013923;28;20266;-64
2023/04/23 08:02:44;;;;;;;11.23;5.90;;;;;;;16.19;81.37;98354.53;5031749;28;20193;-64
2023/04/23 08:05:09;;;;;;;7.40;6.10;;;;;;;16.39;79.86;98360.56;5031633;28;20197;-64
2023/04/23 08:07:35;;;;;;;11.20;5.95;;;;;;;16.32;79.94;98328.09;5031573;28;20245;-64
2023/04/23 08:10:05;;;;;;;6.60;5.80;;;;;;;16.63;76.06;98389.59;5031424;28;20588;-64
2023/04/23 08:12:32;;;;;;;9.88;6.10;;;;;;;16.53;77.47;98362.69;5031499;28;20286;-64
2023/04/23 08:14:58;;;;;;;8.77;5.57;;;;;;;16.85;75.81;98399.72;5031473;28;20190;-64
2023/04/23 08:17:23;;;;;;;6.20;5.60;;;;;;;16.66;75.32;98368.41;5031446;28;20201;-64
2023/04/23 08:19:49;;;;;;;6.47;4.90;;;;;;;16.94;72.97;98394.44;5031294;28;20217;-64
2023/04/23 08:22:15;;;;;;;6.65;5.25;;;;;;;16.95;74.11;98398.69;5031366;28;20197;-64
2023/04/23 08:24:41;;;;;;;6.05;4.82;;;;;;;16.61;73.02;98323.63;5046616;28;20280;-64
2023/04/23 08:27:07;;;;;;;9.18;5.30;;;;;;;16.67;71.69;98318.63;5051153;28;20667;-64
2023/04/23 08:29:32;;;;;;;9.98;4.65;;;;;;;16.93;72.11;98386.72;5051428;28;20181;-64
2023/04/23 08:31:58;;;;;;;9.07;5.05;;;;;;;16.82;72.96;98374.69;5031057;28;20244;-64
2023/04/23 08:34:23;;;;;;;12.15;5.22;;;;;;;16.74;73.51;98364.09;5031088;28;20197;-64
2023/04/23 08:36:48;;;;;;;9.25;5.20;;;;;;;16.63;73.83;98330.34;5031033;28;20611;-64
2023/04/23 08:39:14;;;;;;;7.75;4.68;;;;;;;16.43;70.91;98307.03;5030947;28;20585;-64
2023/04/23 08:41:44;;;;;;;7.78;4.55;;;;;;;16.37;70.43;98315.41;5030953;28;20178;-64
2023/04/23 08:44:28;;;;;;;7.18;5.03;;;;;;;16.79;69.34;98380.19;5030899;28;20197;-63
2023/04/23 08:46:57;;;;;;;6.18;4.30;;;;;;;16.39;70.88;98305.72;5030854;28;20228;-63
2023/04/23 08:49:23;;;;;;;7.70;4.82;;;;;;;16.32;71.49;98305.41;5030775;28;20208;-63
2023/04/23 08:51:53;;;;;;;6.82;4.38;;;;;;;16.44;72.16;98366.97;5030086;28;20661;-64
2023/04/23 08:54:26;;;;;;;6.18;4.55;;;;;;;16.23;72.26;98347.22;5030815;28;20645;-62
2023/04/23 08:56:57;;;;;;;13.75;4.72;;;;;;;16.17;72.12;98313.84;5030661;28;20666;-62
2023/04/23 08:59:23;;;;;;;8.38;4.65;;;;;;;16.43;71.79;98352.28;5010615;28;20578;-62
2023/04/23 09:01:49;;;;;;;8.18;4.50;;;;;;;16.25;71.59;98337.44;5011457;28;20179;-62
2023/04/23 09:04:19;;;;;;;4.75;4.20;;;;;;;16.44;73.19;98374.00;5030600;28;20192;-62
2023/04/23 09:06:44;;;;;;;6.63;4.35;;;;;;;16.55;72.36;98369.41;5030546;28;20676;-62
2023/04/23 09:09:14;;;;;;;4.97;4.57;;;;;;;16.73;71.42;98359.84;5030454;28;20269;-62
2023/04/23 09:11:40;;;;;;;7.15;4.78;;;;;;;16.57;70.70;98332.72;5030491;28;20184;-62
2023/04/23 09:14:06;;;;;;;11.82;4.53;;;;;;;16.58;71.25;98318.69;5030431;28;20186;-62
2023/04/23 09:16:32;;;;;;;5.85;4.53;;;;;;;16.54;69.72;98292.03;5030400;28;20181;-62
2023/04/23 09:18:57;;;;;;;6.53;4.57;;;;;;;16.64;69.60;98297.19;5030237;28;20213;-62
2023/04/23 09:21:23;;;;;;;10.15;4.93;;;;;;;16.63;69.76;98295.56;5030327;28;20657;-62
2023/04/23 09:23:51;;;;;;;13.32;6.53;;;;;;;16.98;68.41;98353.13;5030244;28;20181;-62
2023/04/23 09:26:23;;;;;;;9.45;5.40;;;;;;;17.07;69.13;98347.84;5030237;28;20237;-62
2023/04/23 09:28:50;;;;;;;6.90;4.55;;;;;;;17.02;68.14;98355.31;5030196;28;20186;-62
2023/04/23 09:31:22;;;;;;;7.00;4.55;;;;;;;16.91;67.89;98318.91;5031926;28;20186;-62
2023/04/23 09:33:53;;;;;;;9.15;3.72;;;;;;;17.29;63.44;98346.59;5032435;28;20182;-62
2023/04/23 09:36:22;;;;;;;6.35;4.22;;;;;;;17.52;62.54;98358.31;5032462;28;20259;-63
2023/04/23 09:38:48;;;;;;;4.63;3.50;;;;;;;17.24;63.63;98293.91;5049649;28;20245;-62
2023/04/23 09:41:27;;;;;;;6.93;3.72;;;;;;;17.39;62.83;98297.69;5049908;28;20636;-62
2023/04/23 09:43:53;;;;;;;4.72;3.50;;;;;;;17.63;63.10;98316.22;5049897;28;20202;-62
2023/04/23 09:46:37;;;;;;;8.73;3.88;;;;;;;17.63;61.06;98353.69;5049651;28;20199;-62
2023/04/23 09:49:06;;;;;;;6.22;3.45;;;;;;;17.74;60.04;98326.47;5049885;28;20197;-62
2023/04/23 09:51:44;;;;;;;5.93;3.50;;;;;;;17.83;60.58;98341.25;5049772;28;20193;-62
2023/04/23 09:54:21;;;;;;;6.13;3.85;;;;;;;17.44;62.15;98298.06;5049753;28;20196;-62
2023/04/23 09:56:55;;;;;;;5.07;3.90;;;;;;;17.71;62.17;98338.03;5049805;28;20181;-62
2023/04/23 09:59:30;;;;;;;6.32;3.90;;;;;;;17.61;61.07;98345.16;5049593;28;20273;-62
2023/04/23 10:02:00;;;;;;;9.38;3.67;;;;;;;17.04;61.89;98247.97;5049665;28;20195;-62
2023/04/23 10:04:25;;;;;;;4.93;3.65;;;;;;;17.29;60.23;98255.91;5053021;28;20741;-62
2023/04/23 10:06:58;;;;;;;5.38;3.92;;;;;;;17.62;60.51;98277.94;5053782;28;20220;-62
2023/04/23 10:09:25;;;;;;;13.20;6.32;;;;;;;17.68;59.69;98259.84;5046947;28;20194;-62
2023/04/23 10:11:55;;;;;;;7.57;4.10;;;;;;;18.05;60.57;98291.84;5033839;28;20189;-62
2023/04/23 10:14:22;;;;;;;8.02;3.90;;;;;;;18.45;60.15;98322.69;5033838;28;20265;-62
2023/04/23 10:16:50;;;;;;;5.38;3.08;;;;;;;18.48;58.73;98293.56;5034298;28;20194;-62
2023/04/23 10:19:22;;;;;;;13.32;5.53;;;;;;;18.45;57.48;98259.81;5036112;28;20679;-62
2023/04/23 10:21:53;;;;;;;10.30;5.38;;;;;;;18.55;57.19;98257.91;5053434;28;20189;-62
2023/04/23 10:24:21;;;;;;;7.18;3.60;;;;;;;18.73;57.87;98263.84;5053552;28;20703;-62
2023/04/23 10:26:48;;;;;;;8.70;3.67;;;;;;;18.65;58.18;98264.66;5053491;28;20247;-62
2023/04/23 10:29:16;;;;;;;5.70;3.88;;;;;;;18.86;59.20;98299.13;5053379;28;20185;-63
2023/04/23 10:31:41;;;;;;;7.10;3.97;;;;;;;18.69;60.26;98267.75;5053355;28;20199;-63
2023/04/23 10:34:09;;;;;;;5.57;3.80;;;;;;;18.87;58.46;98276.34;5053403;28;20181;-63
2023/04/23 10:36:37;;;;;;;6.60;3.92;;;;;;;18.54;58.29;98232.69;5053029;28;20193;-63
2023/04/23 10:39:06;;;;;;;6.57;4.20;;;;;;;18.60;58.18;98227.59;5053154;28;20213;-63
2023/04/23 10:41:37;;;;;;;6.38;3.90;;;;;;;18.67;58.64;98282.84;5053399;28;20345;-63
2023/04/23 10:44:11;;;;;;;9.40;3.58;;;;;;;18.74;59.06;98300.41;5053142;28;20177;-63
2023/04/23 10:46:36;;;;;;;6.30;4.07;;;;;;;18.28;58.73;98227.47;5053092;28;20189;-63
2023/04/23 10:49:13;;;;;;;6.00;3.95;;;;;;;18.59;57.74;98293.31;5053319;28;20207;-63
2023/04/23 10:51:41;;;;;;;7.40;3.80;;;;;;;18.24;57.90;98248.91;5032898;28;20650;-63
2023/04/23 10:54:08;;;;;;;8.98;3.78;;;;;;;18.59;57.43;98290.69;5033055;28;20288;-63
2023/04/23 10:56:34;;;;;;;5.22;3.67;;;;;;;18.69;56.30;98241.56;5032958;28;20185;-63
2023/04/23 10:58:59;;;;;;;5.50;4.32;;;;;;;19.18;56.46;98274.78;5032826;28;20240;-63
2023/04/23 11:01:28;;;;;;;4.50;3.63;;;;;;;19.19;54.49;98231.81;5032857;28;20268;-63
2023/04/23 11:03:55;;;;;;;7.78;3.47;;;;;;;19.60;54.14;98265.84;5032819;28;20185;-63
2023/04/23 11:06:47;;;;;;;6.88;3.60;;;;;;;19.92;54.86;98270.19;5032818;28;20287;-63
2023/04/23 11:09:46;;;;;;;8.93;3.78;;;;;;;20.25;52.81;98279.69;5032819;28;20335;-63
2023/04/23 11:12:23;;;;;;;6.05;3.63;;;;;;;20.31;50.72;98277.22;5012933;28;20287;-62
2023/04/23 11:14:49;;;;;;;6.53;3.70;;;;;;;20.21;51.02;98246.84;5012179;28;20278;-63
2023/04/23 11:17:36;;;;;;;5.88;3.60;;;;;;;19.77;50.26;98224.63;5012774;28;20190;-63
2023/04/23 11:20:14;;;;;;;5.05;3.60;;;;;;;19.71;51.47;98257.59;4954211;29;20216;-63
2023/04/23 11:22:42;;;;;;;4.88;3.28;;;;;;;19.46;51.44;98242.03;4964159;28;20207;-63
2023/04/23 11:25:12;;;;;;;6.70;3.95;;;;;;;19.68;51.63;98263.19;4973626;28;20283;-63